createdAt,value
2019-04-05T00:00:57.197Z,85.10
2019-04-05T00:02:29.432Z,85.00
2019-04-05T00:04:01.585Z,85.00
2019-04-05T00:05:33.709Z,85.20
2019-04-05T00:07:05.900Z,85.00
2019-04-05T00:08:37.976Z,85.20
2019-04-05T00:10:10.461Z,85.30
2019-04-05T00:11:42.577Z,85.50
2019-04-05T00:13:14.925Z,85.60
2019-04-05T00:14:47.156Z,85.50
2019-04-05T00:16:19.454Z,85.60
2019-04-05T00:17:51.722Z,85.50
2019-04-05T00:19:23.951Z,85.50
2019-04-05T00:20:56.098Z,85.50
2019-04-05T00:22:28.220Z,85.60
2019-04-05T00:24:00.438Z,85.60
2019-04-05T00:25:32.582Z,85.50
2019-04-05T00:27:04.847Z,85.60
2019-04-05T00:28:36.928Z,85.50
2019-04-05T00:30:09.400Z,85.50
2019-04-05T00:31:41.664Z,85.30
2019-04-05T00:33:13.837Z,85.30
2019-04-05T00:34:46.105Z,85.50
2019-04-05T00:36:18.224Z,85.30
2019-04-05T00:37:50.305Z,85.20
2019-04-05T00:39:22.525Z,85.30
2019-04-05T00:40:54.773Z,85.00
2019-04-05T00:42:27.034Z,85.00
2019-04-05T00:43:59.247Z,85.00
2019-04-05T00:45:31.328Z,84.90
2019-04-05T00:47:03.575Z,84.90
2019-04-05T00:48:35.741Z,84.80
2019-04-05T00:50:08.336Z,84.70
2019-04-05T00:51:40.527Z,84.60
2019-04-05T00:53:12.813Z,84.90
2019-04-05T00:54:45.172Z,84.70
2019-04-05T00:56:17.468Z,84.90
2019-04-05T00:57:49.719Z,85.00
2019-04-05T00:59:21.876Z,85.10
2019-04-05T01:00:54.053Z,85.20
2019-04-05T01:02:26.149Z,85.20
2019-04-05T01:03:58.300Z,85.10
2019-04-05T01:05:30.574Z,85.30
2019-04-05T01:07:02.790Z,85.50
2019-04-05T01:08:35.023Z,85.30
2019-04-05T01:10:07.924Z,85.30
2019-04-05T01:11:40.148Z,85.50
2019-04-05T01:13:12.359Z,85.50
2019-04-05T01:14:45.576Z,85.40
2019-04-05T01:16:17.704Z,85.00
2019-04-05T01:17:50.162Z,85.20
2019-04-05T01:19:25.526Z,85.20
2019-04-05T01:21:01.718Z,85.10
2019-04-05T01:22:34.583Z,85.20
2019-04-05T01:24:07.207Z,85.20
2019-04-05T01:25:40.003Z,85.20
2019-04-05T01:27:13.404Z,85.10
2019-04-05T01:28:45.676Z,85.00
2019-04-05T01:30:18.145Z,84.90
2019-04-05T01:31:50.244Z,84.90
2019-04-05T01:33:22.503Z,84.80
2019-04-05T01:34:54.709Z,84.90
2019-04-05T01:36:26.976Z,84.90
2019-04-05T01:37:59.611Z,84.90
2019-04-05T01:39:31.828Z,85.00
2019-04-05T01:41:04.096Z,85.00
2019-04-05T01:42:36.969Z,85.10
2019-04-05T01:44:10.023Z,85.00
2019-04-05T01:45:52.938Z,85.00
2019-04-05T01:47:16.304Z,85.00
2019-04-05T01:48:48.495Z,84.90
2019-04-05T01:50:20.742Z,85.00
2019-04-05T01:51:52.942Z,84.90
2019-04-05T01:53:25.069Z,84.80
2019-04-05T01:54:57.185Z,84.80
2019-04-05T01:56:29.290Z,85.00
2019-04-05T01:58:01.496Z,85.00
2019-04-05T01:59:33.704Z,85.00
2019-04-05T02:01:05.770Z,85.00
2019-04-05T02:02:37.885Z,85.00
2019-04-05T02:04:10.029Z,85.00
2019-04-05T02:05:42.586Z,85.20
2019-04-05T02:07:14.799Z,85.20
2019-04-05T02:08:48.091Z,85.20
2019-04-05T02:10:20.259Z,85.00
2019-04-05T02:11:52.482Z,85.00
2019-04-05T02:13:24.712Z,85.00
2019-04-05T02:14:56.808Z,85.30
2019-04-05T02:16:29.137Z,85.30
2019-04-05T02:18:01.394Z,85.30
2019-04-05T02:19:33.680Z,86.20
2019-04-05T02:21:06.032Z,85.30
2019-04-05T02:22:38.318Z,85.70
2019-04-05T02:24:10.608Z,85.60
2019-04-05T02:25:42.858Z,85.40
2019-04-05T02:27:15.087Z,85.40
2019-04-05T02:28:47.300Z,85.40
2019-04-05T02:30:19.680Z,85.60
2019-04-05T02:31:51.907Z,85.50
2019-04-05T02:33:24.158Z,85.30
2019-04-05T02:34:56.436Z,85.20
2019-04-05T02:36:28.550Z,84.90
2019-04-05T02:38:00.794Z,85.20
2019-04-05T02:39:32.888Z,85.50
2019-04-05T02:41:05.091Z,85.30
2019-04-05T02:42:37.615Z,85.40
2019-04-05T02:44:12.578Z,85.50
2019-04-05T02:45:46.325Z,85.40
2019-04-05T02:47:19.558Z,85.30
2019-04-05T02:48:53.090Z,85.70
2019-04-05T02:50:28.944Z,85.20
2019-04-05T02:52:02.821Z,85.60
2019-04-05T02:53:35.968Z,85.70
2019-04-05T02:55:08.073Z,85.70
2019-04-05T02:56:41.029Z,85.90
2019-04-05T02:58:13.124Z,86.00
2019-04-05T02:59:46.181Z,85.90
2019-04-05T03:01:18.536Z,85.70
2019-04-05T03:02:51.533Z,85.90
2019-04-05T03:04:23.873Z,85.80
2019-04-05T03:05:55.960Z,85.70
2019-04-05T03:07:28.298Z,85.60
2019-04-05T03:09:02.424Z,85.70
2019-04-05T03:11:11.482Z,85.90
2019-04-05T03:12:43.829Z,86.00
2019-04-05T03:14:17.474Z,86.10
2019-04-05T03:15:50.357Z,86.20
2019-04-05T03:17:24.194Z,86.20
2019-04-05T03:19:08.252Z,86.10
2019-04-05T03:20:40.489Z,86.30
2019-04-05T03:22:13.310Z,86.00
2019-04-05T03:23:45.504Z,86.20
2019-04-05T03:25:17.640Z,86.20
2019-04-05T03:26:58.449Z,86.30
2019-04-05T03:28:34.203Z,86.20
2019-04-05T03:30:07.295Z,86.20
2019-04-05T03:31:39.554Z,86.20
2019-04-05T03:33:11.809Z,86.10
2019-04-05T03:34:44.179Z,86.00
2019-04-05T03:36:16.623Z,86.20
2019-04-05T03:37:48.981Z,86.10
2019-04-05T03:39:22.503Z,86.20
2019-04-05T03:40:55.151Z,86.20
2019-04-05T03:42:27.473Z,86.20
2019-04-05T03:43:59.541Z,86.40
2019-04-05T03:45:31.662Z,86.20
2019-04-05T03:47:03.970Z,86.20
2019-04-05T03:48:36.214Z,86.40
2019-04-05T03:50:08.571Z,86.50
2019-04-05T03:51:41.437Z,86.30
2019-04-05T03:53:13.970Z,86.30
2019-04-05T03:54:46.081Z,86.30
2019-04-05T03:56:18.381Z,86.40
2019-04-05T03:57:50.625Z,86.30
2019-04-05T03:59:22.841Z,86.20
2019-04-05T04:00:55.093Z,86.20
2019-04-05T04:02:27.518Z,87.00
2019-04-05T04:03:59.663Z,86.50
2019-04-05T04:05:31.964Z,86.30
2019-04-05T04:07:04.074Z,87.20
2019-04-05T04:08:36.211Z,86.60
2019-04-05T04:10:14.708Z,86.60
2019-04-05T04:11:47.219Z,86.50
2019-04-05T04:13:19.401Z,86.40
2019-04-05T04:14:51.745Z,86.30
2019-04-05T04:16:24.140Z,86.40
2019-04-05T04:17:56.978Z,86.30
2019-04-05T04:19:29.284Z,87.10
2019-04-05T04:21:07.803Z,86.60
2019-04-05T04:22:39.994Z,86.80
2019-04-05T04:24:12.357Z,86.60
2019-04-05T04:25:44.671Z,86.80
2019-04-05T04:27:17.469Z,86.80
2019-04-05T04:28:49.966Z,86.80
2019-04-05T04:30:22.461Z,86.80
2019-04-05T04:31:54.687Z,86.60
2019-04-05T04:33:27.358Z,86.60
2019-04-05T04:34:59.454Z,86.60
2019-04-05T04:36:31.646Z,87.20
2019-04-05T04:38:05.067Z,86.40
2019-04-05T04:39:37.567Z,86.40
2019-04-05T04:41:09.778Z,86.20
2019-04-05T04:42:41.974Z,86.20
2019-04-05T04:44:14.426Z,86.20
2019-04-05T04:45:46.731Z,86.30
2019-04-05T04:47:26.333Z,86.30
2019-04-05T04:48:53.810Z,86.10
2019-04-05T04:50:26.824Z,86.00
2019-04-05T04:51:59.400Z,85.90
2019-04-05T04:53:31.577Z,86.00
2019-04-05T04:55:03.999Z,86.00
2019-04-05T04:56:36.314Z,85.90
2019-04-05T04:58:08.822Z,85.80
2019-04-05T04:59:41.142Z,86.10
2019-04-05T05:01:13.268Z,86.20
2019-04-05T05:02:45.613Z,86.20
2019-04-05T05:04:17.965Z,86.20
2019-04-05T05:05:50.277Z,86.30
2019-04-05T05:07:22.524Z,86.50
2019-04-05T05:08:54.675Z,86.70
2019-04-05T05:10:26.912Z,86.90
2019-04-05T05:11:59.136Z,86.70
2019-04-05T05:13:31.472Z,86.50
2019-04-05T05:15:04.023Z,86.40
2019-04-05T05:16:36.201Z,86.40
2019-04-05T05:18:08.636Z,86.50
2019-04-05T05:19:40.883Z,86.50
2019-04-05T05:21:13.219Z,86.50
2019-04-05T05:22:45.450Z,86.50
2019-04-05T05:24:17.824Z,86.50
2019-04-05T05:25:50.412Z,86.60
2019-04-05T05:27:22.662Z,86.60
2019-04-05T05:28:55.278Z,86.80
2019-04-05T05:30:27.623Z,86.60
2019-04-05T05:31:59.702Z,86.50
2019-04-05T05:33:31.917Z,86.60
2019-04-05T05:35:04.565Z,86.60
2019-04-05T05:36:36.894Z,86.60
2019-04-05T05:38:09.172Z,86.70
2019-04-05T05:39:41.400Z,86.60
2019-04-05T05:41:13.758Z,86.50
2019-04-05T05:42:46.034Z,86.40
2019-04-05T05:44:18.189Z,86.60
2019-04-05T05:45:50.581Z,86.50
2019-04-05T05:47:22.806Z,86.40
2019-04-05T05:48:55.055Z,86.40
2019-04-05T05:50:27.264Z,86.30
2019-04-05T05:52:00.027Z,86.60
2019-04-05T05:53:32.556Z,86.50
2019-04-05T05:55:05.274Z,86.80
2019-04-05T05:56:37.541Z,86.60
2019-04-05T05:58:09.871Z,86.90
2019-04-05T05:59:42.125Z,86.90
2019-04-05T06:01:14.377Z,87.00
2019-04-05T06:02:48.358Z,86.90
2019-04-05T06:04:20.782Z,86.90
2019-04-05T06:06:03.681Z,87.20
2019-04-05T06:07:27.214Z,87.10
2019-04-05T06:08:59.348Z,87.10
2019-04-05T06:10:31.452Z,87.00
2019-04-05T06:12:03.675Z,87.60
2019-04-05T06:13:35.897Z,87.10
2019-04-05T06:15:08.223Z,87.10
2019-04-05T06:16:46.246Z,87.20
2019-04-05T06:18:14.632Z,87.10
2019-04-05T06:19:47.000Z,87.10
2019-04-05T06:21:19.256Z,86.90
2019-04-05T06:24:25.524Z,86.50
2019-04-05T06:25:57.768Z,86.80
2019-04-05T06:27:30.062Z,86.50
2019-04-05T06:29:02.336Z,86.40
2019-04-05T06:30:34.486Z,86.50
2019-04-05T06:32:06.855Z,86.60
2019-04-05T06:33:39.138Z,86.50
2019-04-05T06:35:11.247Z,86.90
2019-04-05T06:36:43.339Z,86.60
2019-04-05T06:38:15.428Z,86.60
2019-04-05T06:39:47.544Z,86.60
2019-04-05T06:41:19.860Z,86.50
2019-04-05T06:42:51.995Z,86.40
2019-04-05T06:44:24.224Z,86.30
2019-04-05T06:45:56.583Z,86.50
2019-04-05T06:47:29.135Z,86.50
2019-04-05T06:49:01.446Z,86.60
2019-04-05T06:50:33.706Z,86.50
2019-04-05T06:52:05.854Z,86.50
2019-04-05T06:53:38.011Z,86.50
2019-04-05T06:55:10.330Z,86.30
2019-04-05T06:56:42.596Z,86.40
2019-04-05T06:58:20.154Z,86.50
2019-04-05T06:59:50.603Z,86.30
2019-04-05T07:01:22.836Z,86.50
2019-04-05T07:02:55.374Z,86.30
2019-04-05T07:04:27.626Z,85.90
2019-04-05T07:05:59.887Z,86.20
2019-04-05T07:07:32.176Z,86.20
2019-04-05T07:09:05.588Z,86.20
2019-04-05T07:10:37.842Z,86.90
2019-04-05T07:12:10.104Z,86.10
2019-04-05T07:13:42.315Z,86.20
2019-04-05T07:15:14.495Z,86.40
2019-04-05T07:16:47.034Z,86.30
2019-04-05T07:18:32.631Z,86.20
2019-04-05T07:19:53.428Z,85.90
2019-04-05T07:21:25.706Z,85.90
2019-04-05T07:22:58.982Z,86.00
2019-04-05T07:24:31.211Z,86.10
2019-04-05T07:26:03.491Z,86.40
2019-04-05T07:27:35.724Z,86.00
2019-04-05T07:29:07.828Z,85.90
2019-04-05T07:30:39.981Z,85.80
2019-04-05T07:32:12.205Z,85.80
2019-04-05T07:33:44.488Z,85.80
2019-04-05T07:35:16.819Z,85.50
2019-04-05T07:36:48.899Z,85.50
2019-04-05T07:38:21.270Z,85.50
2019-04-05T07:39:53.414Z,85.40
2019-04-05T07:41:26.151Z,85.40
2019-04-05T07:42:58.437Z,85.50
2019-04-05T07:44:30.586Z,85.50
2019-04-05T07:46:02.909Z,85.40
2019-04-05T07:47:35.141Z,85.40
2019-04-05T07:49:07.274Z,85.50
2019-04-05T07:50:39.408Z,85.10
2019-04-05T07:52:13.044Z,85.10
2019-04-05T07:53:45.470Z,85.10
2019-04-05T07:55:17.633Z,84.90
2019-04-05T07:56:49.873Z,84.80
2019-04-05T07:58:22.091Z,84.90
2019-04-05T07:59:54.516Z,85.00
2019-04-05T08:01:26.849Z,84.90
2019-04-05T08:02:59.313Z,84.80
2019-04-05T08:04:31.559Z,84.80
2019-04-05T08:06:03.855Z,84.50
2019-04-05T08:07:40.592Z,85.10
2019-04-05T08:09:14.395Z,84.70
2019-04-05T08:10:46.847Z,84.20
2019-04-05T08:12:19.874Z,84.30
2019-04-05T08:13:54.143Z,84.40
2019-04-05T08:15:26.765Z,83.90
2019-04-05T08:16:58.981Z,83.50
2019-04-05T08:18:31.107Z,83.40
2019-04-05T08:20:03.787Z,83.60
2019-04-05T08:21:36.050Z,83.80
2019-04-05T08:23:08.138Z,83.90
2019-04-05T08:24:40.350Z,83.40
2019-04-05T08:26:12.518Z,83.40
2019-04-05T08:27:44.849Z,83.30
2019-04-05T08:29:17.016Z,83.10
2019-04-05T08:30:49.127Z,83.00
2019-04-05T08:32:21.264Z,83.20
2019-04-05T08:33:53.512Z,82.90
2019-04-05T08:35:25.762Z,82.70
2019-04-05T08:36:57.899Z,82.60
2019-04-05T08:38:30.072Z,82.60
2019-04-05T08:40:02.322Z,82.60
2019-04-05T08:41:34.450Z,82.60
2019-04-05T08:43:06.707Z,82.20
2019-04-05T08:44:39.382Z,82.00
2019-04-05T08:46:11.608Z,82.00
2019-04-05T08:47:43.912Z,81.50
2019-04-05T08:49:18.217Z,81.60
2019-04-05T08:50:50.870Z,81.50
2019-04-05T08:52:23.136Z,81.40
2019-04-05T08:53:55.270Z,81.50
2019-04-05T08:55:27.568Z,81.50
2019-04-05T08:56:59.962Z,81.40
2019-04-05T08:58:33.643Z,81.20
2019-04-05T09:00:06.827Z,81.20
2019-04-05T09:01:39.073Z,81.10
2019-04-05T09:03:12.085Z,80.80
2019-04-05T09:04:44.605Z,80.40
2019-04-05T09:06:16.897Z,80.50
2019-04-05T09:07:49.123Z,80.40
2019-04-05T09:09:21.231Z,80.30
2019-04-05T09:10:54.681Z,79.50
2019-04-05T09:12:27.026Z,79.20
2019-04-05T09:13:59.198Z,79.80
2019-04-05T09:15:31.315Z,80.00
2019-04-05T09:17:03.590Z,80.00
2019-04-05T09:18:35.728Z,79.90
2019-04-05T09:20:08.544Z,79.40
2019-04-05T09:21:40.906Z,78.70
2019-04-05T09:23:13.145Z,78.40
2019-04-05T09:24:45.269Z,78.40
2019-04-05T09:26:17.591Z,78.00
2019-04-05T09:27:50.008Z,77.90
2019-04-05T09:29:22.251Z,78.10
2019-04-05T09:30:54.387Z,78.60
2019-04-05T09:32:26.595Z,78.30
2019-04-05T09:33:58.695Z,78.00
2019-04-05T09:35:30.827Z,78.40
2019-04-05T09:37:04.780Z,77.50
2019-04-05T09:38:36.930Z,77.40
2019-04-05T09:40:09.032Z,77.80
2019-04-05T09:41:41.169Z,78.10
2019-04-05T09:43:13.332Z,78.10
2019-04-05T09:44:45.586Z,77.60
2019-04-05T09:46:17.681Z,77.10
2019-04-05T09:47:49.890Z,77.50
2019-04-05T09:49:22.024Z,77.80
2019-04-05T09:50:54.234Z,78.10
2019-04-05T09:52:26.311Z,78.40
2019-04-05T09:53:58.447Z,78.40
2019-04-05T09:55:30.910Z,78.20
2019-04-05T09:57:03.229Z,78.80
2019-04-05T09:58:35.526Z,78.80
2019-04-05T10:00:15.764Z,78.90
2019-04-05T10:01:47.865Z,79.00
2019-04-05T10:03:20.107Z,78.80
2019-04-05T10:04:52.259Z,78.90
2019-04-05T10:06:24.493Z,78.50
2019-04-05T10:07:56.613Z,78.50
2019-04-05T10:09:28.770Z,78.70
2019-04-05T10:11:01.189Z,78.10
2019-04-05T10:12:33.485Z,78.50
2019-04-05T10:14:05.702Z,78.60
2019-04-05T10:15:38.076Z,78.70
2019-04-05T10:17:11.977Z,78.80
2019-04-05T10:18:44.235Z,78.90
2019-04-05T10:20:16.471Z,79.70
2019-04-05T10:21:48.748Z,78.70
2019-04-05T10:23:20.998Z,78.70
2019-04-05T10:24:53.209Z,78.60
2019-04-05T10:26:25.352Z,78.70
2019-04-05T10:27:57.608Z,78.50
2019-04-05T10:29:30.103Z,78.50
2019-04-05T10:31:02.238Z,78.20
2019-04-05T10:32:34.521Z,77.80
2019-04-05T10:34:06.775Z,78.10
2019-04-05T10:35:38.852Z,78.00
2019-04-05T10:37:11.160Z,78.00
2019-04-05T10:38:43.436Z,77.90
2019-04-05T10:40:15.812Z,78.00
2019-04-05T10:41:48.204Z,77.70
2019-04-05T10:43:20.346Z,77.80
2019-04-05T10:44:52.610Z,77.80
2019-04-05T10:46:24.731Z,77.40
2019-04-05T10:47:57.274Z,77.60
2019-04-05T10:49:29.565Z,77.00
2019-04-05T10:51:01.784Z,76.50
2019-04-05T10:52:33.986Z,76.50
2019-04-05T10:54:09.177Z,77.00
2019-04-05T10:55:40.153Z,77.20
2019-04-05T10:57:12.308Z,77.20
2019-04-05T10:58:44.439Z,77.00
2019-04-05T11:00:18.789Z,77.10
2019-04-05T11:01:50.927Z,77.60
2019-04-05T11:03:24.386Z,77.60
2019-04-05T11:04:57.807Z,78.00
2019-04-05T11:06:30.044Z,77.80
2019-04-05T11:08:02.160Z,78.10
2019-04-05T11:09:34.405Z,77.40
2019-04-05T11:11:06.507Z,77.50
2019-04-05T11:12:38.604Z,77.30
2019-04-05T11:14:14.062Z,77.10
2019-04-05T11:15:44.975Z,77.30
2019-04-05T11:17:17.232Z,77.10
2019-04-05T11:18:49.372Z,77.40
2019-04-05T11:20:22.216Z,77.70
2019-04-05T11:21:54.676Z,77.70
2019-04-05T11:23:26.908Z,77.80
2019-04-05T11:24:59.152Z,77.80
2019-04-05T11:26:31.494Z,77.40
2019-04-05T11:28:03.800Z,77.60
2019-04-05T11:29:36.105Z,77.30
2019-04-05T11:31:08.268Z,76.80
2019-04-05T11:32:40.352Z,76.80
2019-04-05T11:34:12.590Z,77.20
2019-04-05T11:35:46.207Z,77.00
2019-04-05T11:37:19.156Z,77.20
2019-04-05T11:38:52.211Z,77.30
2019-04-05T11:40:24.455Z,76.90
2019-04-05T11:41:58.086Z,76.60
2019-04-05T11:43:32.432Z,76.90
2019-04-05T11:45:05.303Z,76.60
2019-04-05T11:46:40.116Z,76.90
2019-04-05T11:48:12.516Z,76.70
2019-04-05T11:49:46.324Z,76.50
2019-04-05T11:51:20.511Z,76.40
2019-04-05T11:52:53.017Z,76.80
2019-04-05T11:54:25.474Z,77.30
2019-04-05T11:55:57.833Z,77.20
2019-04-05T11:57:30.088Z,77.30
2019-04-05T11:59:04.291Z,77.40
2019-04-05T12:00:51.588Z,77.40
2019-04-05T12:02:34.979Z,77.30
2019-04-05T12:04:07.293Z,77.40
2019-04-05T12:05:39.627Z,77.40
2019-04-05T12:07:11.737Z,77.00
2019-04-05T12:08:44.155Z,77.00
2019-04-05T12:10:18.789Z,77.00
2019-04-05T12:11:50.487Z,77.00
2019-04-05T12:13:22.795Z,77.10
2019-04-05T12:14:55.105Z,76.90
2019-04-05T12:16:27.254Z,76.90
2019-04-05T12:17:59.364Z,76.80
2019-04-05T12:19:32.888Z,76.50
2019-04-05T12:21:06.013Z,77.10
2019-04-05T12:22:38.298Z,77.10
2019-04-05T12:24:10.707Z,77.10
2019-04-05T12:25:42.766Z,77.40
2019-04-05T12:27:14.950Z,77.40
2019-04-05T12:28:47.249Z,77.40
2019-04-05T12:30:20.689Z,77.40
2019-04-05T12:31:53.555Z,77.70
2019-04-05T12:33:25.890Z,77.40
2019-04-05T12:34:58.054Z,77.30
2019-04-05T12:36:30.312Z,77.40
2019-04-05T12:38:02.609Z,77.50
2019-04-05T12:39:37.155Z,77.20
2019-04-05T12:41:11.110Z,77.30
2019-04-05T12:42:43.723Z,77.30
2019-04-05T12:44:15.974Z,77.00
2019-04-05T12:45:48.268Z,77.90
2019-04-05T12:47:20.707Z,77.40
2019-04-05T12:48:52.995Z,77.40
2019-04-05T12:50:25.265Z,77.60
2019-04-05T12:51:57.494Z,77.70
2019-04-05T12:53:29.667Z,77.70
2019-04-05T12:55:01.937Z,77.50
2019-04-05T12:56:34.235Z,77.40
2019-04-05T12:58:06.482Z,77.60
2019-04-05T12:59:38.806Z,77.80
2019-04-05T13:01:11.066Z,78.10
2019-04-05T13:02:43.218Z,77.90
2019-04-05T13:04:15.454Z,77.80
2019-04-05T13:05:47.608Z,77.70
2019-04-05T13:07:22.886Z,77.70
2019-04-05T13:08:55.767Z,77.80
2019-04-05T13:10:30.324Z,77.70
2019-04-05T13:12:02.140Z,77.90
2019-04-05T13:13:34.439Z,78.00
2019-04-05T13:15:13.719Z,78.10
2019-04-05T13:16:41.023Z,78.10
2019-04-05T13:18:13.306Z,78.10
2019-04-05T13:19:45.643Z,78.10
2019-04-05T13:21:17.945Z,78.10
2019-04-05T13:22:50.071Z,78.20
2019-04-05T13:24:22.307Z,78.20
2019-04-05T13:25:54.671Z,78.30
2019-04-05T13:27:26.931Z,78.40
2019-04-05T13:28:59.252Z,78.70
2019-04-05T13:30:31.574Z,79.00
2019-04-05T13:32:03.857Z,78.90
2019-04-05T13:33:35.948Z,78.60
2019-04-05T13:35:08.358Z,78.60
2019-04-05T13:36:40.629Z,78.70
2019-04-05T13:38:12.772Z,78.60
2019-04-05T13:39:45.031Z,78.70
2019-04-05T13:41:19.061Z,78.60
2019-04-05T13:42:51.445Z,78.60
2019-04-05T13:44:23.695Z,78.80
2019-04-05T13:45:55.974Z,79.00
2019-04-05T13:47:37.761Z,79.00
2019-04-05T13:49:10.298Z,79.00
2019-04-05T13:50:41.727Z,78.80
2019-04-05T13:52:14.503Z,78.70
2019-04-05T13:53:46.632Z,78.70
2019-04-05T13:55:18.867Z,78.60
2019-04-05T13:56:51.135Z,78.90
2019-04-05T13:58:27.795Z,78.70
2019-04-05T14:00:01.881Z,78.60
2019-04-05T14:01:34.100Z,78.70
2019-04-05T14:03:06.247Z,78.60
2019-04-05T14:04:38.386Z,78.90
2019-04-05T14:06:10.860Z,79.00
2019-04-05T14:07:43.201Z,78.80
2019-04-05T14:09:15.731Z,78.70
2019-04-05T14:10:48.121Z,78.80
2019-04-05T14:12:20.231Z,78.80
2019-04-05T14:13:52.523Z,78.90
2019-04-05T14:15:24.623Z,78.70
2019-04-05T14:16:56.886Z,78.60
2019-04-05T14:18:29.131Z,78.60
2019-04-05T14:20:01.386Z,78.70
2019-04-05T14:21:40.324Z,78.80
2019-04-05T14:23:07.717Z,78.60
2019-04-05T14:24:39.971Z,78.40
2019-04-05T14:26:12.127Z,78.30
2019-04-05T14:27:44.360Z,78.50
2019-04-05T14:29:16.624Z,78.40
2019-04-05T14:30:48.836Z,78.40
2019-04-05T14:32:22.013Z,78.40
2019-04-05T14:33:54.885Z,78.40
2019-04-05T14:35:27.115Z,78.70
2019-04-05T14:36:59.451Z,78.70
2019-04-05T14:38:31.702Z,78.70
2019-04-05T14:40:05.015Z,78.70
2019-04-05T14:41:37.304Z,78.90
2019-04-05T14:43:09.523Z,79.00
2019-04-05T14:44:41.770Z,79.00
2019-04-05T14:46:13.924Z,78.60
2019-04-05T14:47:46.085Z,78.50
2019-04-05T14:49:18.314Z,78.70
2019-04-05T14:50:50.573Z,79.00
2019-04-05T14:52:25.494Z,78.90
2019-04-05T14:53:56.744Z,78.70
2019-04-05T14:55:29.925Z,78.80
2019-04-05T14:57:05.709Z,79.10
2019-04-05T14:58:36.760Z,79.20
2019-04-05T15:00:09.529Z,78.90
2019-04-05T15:01:41.769Z,78.90
2019-04-05T15:03:14.060Z,79.10
2019-04-05T15:04:46.191Z,78.90
2019-04-05T15:06:18.433Z,78.80
2019-04-05T15:07:51.718Z,79.20
2019-04-05T15:09:25.565Z,79.20
2019-04-05T15:10:58.095Z,79.60
2019-04-05T15:12:30.252Z,78.70
2019-04-05T15:14:02.546Z,78.70
2019-04-05T15:15:34.682Z,78.80
2019-04-05T15:17:06.810Z,78.70
2019-04-05T15:18:39.076Z,79.00
2019-04-05T15:20:12.748Z,79.00
2019-04-05T15:21:45.112Z,79.20
2019-04-05T15:23:17.278Z,79.20
2019-04-05T15:24:49.493Z,79.20
2019-04-05T15:26:21.662Z,79.40
2019-04-05T15:27:55.598Z,79.30
2019-04-05T15:29:27.944Z,79.30
2019-04-05T15:31:00.094Z,79.20
2019-04-05T15:32:32.935Z,79.20
2019-04-05T15:34:05.058Z,79.20
2019-04-05T15:35:37.398Z,79.50
2019-04-05T15:37:09.510Z,79.40
2019-04-05T15:38:41.764Z,79.40
2019-04-05T15:40:14.219Z,79.40
2019-04-05T15:41:46.369Z,79.40
2019-04-05T15:43:18.630Z,79.60
2019-04-05T15:44:50.900Z,79.90
2019-04-05T15:46:23.167Z,79.90
2019-04-05T15:47:55.420Z,80.20
2019-04-05T15:49:27.506Z,80.00
2019-04-05T15:50:59.637Z,80.20
2019-04-05T15:52:32.189Z,80.30
2019-04-05T15:54:04.401Z,80.30
2019-04-05T15:55:37.174Z,80.50
2019-04-05T15:57:09.666Z,80.60
2019-04-05T15:58:41.852Z,80.50
2019-04-05T16:00:19.274Z,80.40
2019-04-05T16:01:51.396Z,80.30
2019-04-05T16:03:23.537Z,80.50
2019-04-05T16:04:55.683Z,80.60
2019-04-05T16:06:27.789Z,80.70
2019-04-05T16:07:59.961Z,80.70
2019-04-05T16:09:32.080Z,80.60
2019-04-05T16:11:04.623Z,80.90
2019-04-05T16:12:36.711Z,80.90
2019-04-05T16:14:09.263Z,80.90
2019-04-05T16:15:41.656Z,81.00
2019-04-05T16:17:13.897Z,81.00
2019-04-05T16:18:46.192Z,81.10
2019-04-05T16:20:18.599Z,81.00
2019-04-05T16:21:50.835Z,81.00
2019-04-05T16:23:23.021Z,81.30
2019-04-05T16:24:55.299Z,81.20
2019-04-05T16:26:27.572Z,81.40
2019-04-05T16:27:59.684Z,81.30
2019-04-05T16:29:31.971Z,82.30
2019-04-05T16:31:04.364Z,81.90
2019-04-05T16:32:36.511Z,82.50
2019-04-05T16:34:08.638Z,82.50
2019-04-05T16:35:40.986Z,82.80
2019-04-05T16:37:13.211Z,82.90
2019-04-05T16:38:45.425Z,83.80
2019-04-05T16:40:18.771Z,83.80
2019-04-05T16:41:51.025Z,84.30
2019-04-05T16:43:23.227Z,84.70
2019-04-05T16:44:55.477Z,84.70
2019-04-05T16:46:27.592Z,85.00
2019-04-05T16:47:59.807Z,85.00
2019-04-05T16:49:32.069Z,85.40
2019-04-05T16:51:04.139Z,85.20
2019-04-05T16:52:44.621Z,85.60
2019-04-05T16:54:10.611Z,84.90
2019-04-05T16:55:42.880Z,85.30
2019-04-05T16:57:15.042Z,84.80
2019-04-05T16:58:47.327Z,85.10
2019-04-05T17:00:19.837Z,85.00
2019-04-05T17:01:52.114Z,85.50
2019-04-05T17:03:24.272Z,85.30
2019-04-05T17:04:56.549Z,85.20
2019-04-05T17:06:28.794Z,85.10
2019-04-05T17:08:01.068Z,84.70
2019-04-05T17:09:36.556Z,85.90
2019-04-05T17:11:08.647Z,85.50
2019-04-05T17:12:41.079Z,86.10
2019-04-05T17:14:13.309Z,86.00
2019-04-05T17:15:45.911Z,84.80
2019-04-05T17:17:18.305Z,85.70
2019-04-05T17:18:50.716Z,85.70
2019-04-05T17:20:22.987Z,85.40
2019-04-05T17:21:55.226Z,85.90
2019-04-05T17:23:27.377Z,86.60
2019-04-05T17:24:59.718Z,85.80
2019-04-05T17:26:31.840Z,85.60
2019-04-05T17:28:03.962Z,86.00
2019-04-05T17:29:36.141Z,86.30
2019-04-05T17:31:08.432Z,85.60
2019-04-05T17:32:40.672Z,85.40
2019-04-05T17:34:12.980Z,85.60
2019-04-05T17:35:45.087Z,86.00
2019-04-05T17:37:17.461Z,86.50
2019-04-05T17:38:49.727Z,86.50
2019-04-05T17:40:21.926Z,86.20
2019-04-05T17:41:54.281Z,86.50
2019-04-05T17:43:26.494Z,86.30
2019-04-05T17:44:58.780Z,86.80
2019-04-05T17:46:30.865Z,87.40
2019-04-05T17:48:03.015Z,86.80
2019-04-05T17:49:35.296Z,87.80
2019-04-05T17:51:09.359Z,87.80
2019-04-05T17:52:41.856Z,87.60
2019-04-05T17:54:14.077Z,87.60
2019-04-05T17:55:46.406Z,87.50
2019-04-05T17:57:18.606Z,87.50
2019-04-05T17:58:51.066Z,87.80
2019-04-05T18:00:23.511Z,88.00
2019-04-05T18:01:55.818Z,87.90
2019-04-05T18:03:27.960Z,87.60
2019-04-05T18:05:00.084Z,87.50
2019-04-05T18:06:32.366Z,87.70
2019-04-05T18:08:04.606Z,88.20
2019-04-05T18:09:36.850Z,87.80
2019-04-05T18:11:08.955Z,88.20
2019-04-05T18:12:41.077Z,87.90
2019-04-05T18:14:13.192Z,88.20
2019-04-05T18:15:52.437Z,88.40
2019-04-05T18:17:19.464Z,89.10
2019-04-05T18:18:51.730Z,88.70
2019-04-05T18:20:23.797Z,88.50
2019-04-05T18:21:56.144Z,89.10
2019-04-05T18:23:30.173Z,89.80
2019-04-05T18:25:02.537Z,90.00
2019-04-05T18:26:34.742Z,89.80
2019-04-05T18:28:07.047Z,89.80
2019-04-05T18:29:39.289Z,89.70
2019-04-05T18:31:11.387Z,89.70
2019-04-05T18:32:43.531Z,89.70
2019-04-05T18:34:15.847Z,90.20
2019-04-05T18:35:48.099Z,89.90
2019-04-05T18:37:20.345Z,89.30
2019-04-05T18:38:52.592Z,89.50
2019-04-05T18:40:24.854Z,89.80
2019-04-05T18:41:57.127Z,89.30
2019-04-05T18:43:29.332Z,89.80
2019-04-05T18:45:01.474Z,89.60
2019-04-05T18:46:33.695Z,89.40
2019-04-05T18:48:05.791Z,89.20
2019-04-05T18:49:38.046Z,89.40
2019-04-05T18:51:10.183Z,90.20
2019-04-05T18:52:42.428Z,90.20
2019-04-05T18:54:14.557Z,90.40
2019-04-05T18:55:46.865Z,90.60
2019-04-05T18:57:18.998Z,90.80
2019-04-05T18:58:51.103Z,90.80
2019-04-05T19:00:23.340Z,91.20
2019-04-05T19:01:55.432Z,90.70
2019-04-05T19:03:27.516Z,91.30
2019-04-05T19:04:59.644Z,91.30
2019-04-05T19:06:31.716Z,91.00
2019-04-05T19:08:03.945Z,91.10
2019-04-05T19:09:36.184Z,91.10
2019-04-05T19:11:08.404Z,92.00
2019-04-05T19:12:40.718Z,91.40
2019-04-05T19:14:13.104Z,91.40
2019-04-05T19:15:45.458Z,91.40
2019-04-05T19:17:23.860Z,91.20
2019-04-05T19:18:51.791Z,91.50
2019-04-05T19:20:24.032Z,91.70
2019-04-05T19:21:56.269Z,91.80
2019-04-05T19:23:28.530Z,91.80
2019-04-05T19:25:00.641Z,92.20
2019-04-05T19:26:32.899Z,91.80
2019-04-05T19:28:06.998Z,92.30
2019-04-05T19:29:39.231Z,91.90
2019-04-05T19:49:58.553Z,90.90
2019-04-05T19:51:30.916Z,90.80
2019-04-05T19:53:03.200Z,90.60
2019-04-05T19:54:35.333Z,90.70
2019-04-05T19:56:07.550Z,90.60
2019-04-05T19:57:39.628Z,90.60
2019-04-05T19:59:11.766Z,90.90
2019-04-05T20:00:44.011Z,90.80
2019-04-05T20:02:22.084Z,90.90
2019-04-05T20:03:54.816Z,91.00
2019-04-05T20:05:27.206Z,91.20
2019-04-05T20:06:59.339Z,90.80
2019-04-05T20:08:31.678Z,90.90
2019-04-05T20:10:04.640Z,90.80
2019-04-05T20:11:37.212Z,90.70
2019-04-05T20:13:09.553Z,90.70